createdAt,value
2023-03-01T00:04:18.899Z,93.90
2023-03-01T00:06:49.253Z,93.35
2023-03-01T00:09:17.378Z,92.75
2023-03-01T00:11:47.439Z,90.05
2023-03-01T00:14:15.130Z,91.88
2023-03-01T00:16:44.481Z,80.43
2023-03-01T00:19:15.258Z,81.53
2023-03-01T00:21:43.262Z,80.93
2023-03-01T00:24:11.868Z,73.88
2023-03-01T00:26:39.769Z,76.63
2023-03-01T00:29:07.346Z,76.13
2023-03-01T00:31:35.507Z,79.10
2023-03-01T00:34:06.832Z,210.68
2023-03-01T00:36:38.023Z,119.13
2023-03-01T00:39:09.521Z,84.47
2023-03-01T00:41:36.809Z,85.78
2023-03-01T00:44:05.424Z,89.22
2023-03-01T00:46:35.371Z,90.88
2023-03-01T00:49:07.897Z,94.68
2023-03-01T00:51:35.432Z,101.07
2023-03-01T00:54:04.279Z,115.90
2023-03-01T00:56:32.536Z,97.75
2023-03-01T00:59:01.804Z,86.82
2023-03-01T01:01:32.211Z,89.05
2023-03-01T01:04:06.245Z,87.53
2023-03-01T01:06:37.906Z,85.60
2023-03-01T01:09:20.054Z,88.03
2023-03-01T01:11:53.425Z,87.53
2023-03-01T01:14:21.456Z,85.90
2023-03-01T01:16:49.326Z,88.90
2023-03-01T01:19:16.855Z,92.22
2023-03-01T01:21:46.241Z,94.00
2023-03-01T01:24:13.869Z,95.32
2023-03-01T01:26:41.469Z,92.25
2023-03-01T01:29:09.711Z,97.55
2023-03-01T01:31:39.264Z,102.95
2023-03-01T01:34:09.865Z,93.05
2023-03-01T01:36:37.290Z,95.85
2023-03-01T01:39:06.035Z,99.65
2023-03-01T01:41:33.675Z,97.13
2023-03-01T01:44:35.075Z,97.90
2023-03-01T01:47:09.475Z,98.78
2023-03-01T01:49:48.718Z,106.63
2023-03-01T01:52:28.931Z,95.63
2023-03-01T01:55:03.834Z,91.75
2023-03-01T01:57:44.720Z,91.28
2023-03-01T02:00:18.829Z,93.35
2023-03-01T02:02:48.523Z,90.00
2023-03-01T02:05:44.541Z,93.38
2023-03-01T02:08:15.341Z,91.20
2023-03-01T02:10:52.108Z,93.55
2023-03-01T02:13:20.425Z,92.43
2023-03-01T02:15:47.941Z,91.30
2023-03-01T02:18:22.447Z,90.20
2023-03-01T02:21:27.465Z,101.70
2023-03-01T02:23:59.174Z,91.65
2023-03-01T02:26:48.184Z,92.85
2023-03-01T02:29:15.997Z,89.22
2023-03-01T02:31:43.314Z,114.32
2023-03-01T02:34:20.081Z,127.47
2023-03-01T02:36:55.260Z,155.02
2023-03-01T02:39:31.240Z,225.15
2023-03-01T02:42:01.420Z,106.65
2023-03-01T02:44:28.660Z,87.30
2023-03-01T02:46:59.394Z,79.45
2023-03-01T02:49:29.539Z,78.00
2023-03-01T02:52:24.596Z,79.78
2023-03-01T02:55:13.262Z,77.93
2023-03-01T02:57:45.542Z,76.80
2023-03-01T03:00:34.609Z,75.00
2023-03-01T03:03:02.769Z,75.03
2023-03-01T03:05:34.223Z,74.60
2023-03-01T03:08:04.313Z,74.60
2023-03-01T03:10:36.423Z,74.25
2023-03-01T03:13:10.065Z,76.35
2023-03-01T03:15:40.918Z,69.78
2023-03-01T03:18:11.930Z,73.93
2023-03-01T03:20:41.522Z,71.50
2023-03-01T03:23:09.580Z,75.45
2023-03-01T03:25:39.128Z,68.97
2023-03-01T03:28:11.102Z,72.50
2023-03-01T03:30:41.333Z,72.67
2023-03-01T03:33:13.438Z,70.97
2023-03-01T03:35:47.438Z,61.80
2023-03-01T03:38:18.866Z,76.82
2023-03-01T03:41:04.801Z,75.30
2023-03-01T03:43:34.901Z,76.38
2023-03-01T03:46:08.501Z,77.05
2023-03-01T03:48:42.296Z,75.60
2023-03-01T03:51:17.436Z,73.65
2023-03-01T03:53:46.185Z,72.57
2023-03-01T03:56:14.593Z,69.68
2023-03-01T03:58:43.024Z,70.00
2023-03-01T04:01:10.577Z,69.45
2023-03-01T04:03:38.106Z,70.63
2023-03-01T04:06:06.577Z,72.90
2023-03-01T04:08:33.859Z,74.78
2023-03-01T04:11:24.890Z,81.25
2023-03-01T04:13:55.612Z,71.35
2023-03-01T04:16:23.805Z,73.07
2023-03-01T04:18:51.416Z,77.00
2023-03-01T04:21:21.542Z,74.30
2023-03-01T04:23:57.182Z,71.80
2023-03-01T04:26:24.492Z,69.20
2023-03-01T04:28:54.053Z,66.63
2023-03-01T04:31:22.901Z,67.90
2023-03-01T04:33:56.792Z,68.47
2023-03-01T04:36:27.889Z,66.20
2023-03-01T04:38:56.329Z,66.53
2023-03-01T04:41:26.176Z,62.10
2023-03-01T04:43:57.704Z,64.50
2023-03-01T04:46:25.160Z,65.47
2023-03-01T04:48:52.532Z,65.10
2023-03-01T04:51:21.150Z,67.63
2023-03-01T04:53:48.631Z,62.40
2023-03-01T04:56:16.833Z,63.88
2023-03-01T04:58:45.066Z,63.15
2023-03-01T05:01:18.455Z,64.40
2023-03-01T05:03:49.157Z,62.83
2023-03-01T05:06:18.227Z,61.60
2023-03-01T05:08:46.031Z,61.70
2023-03-01T05:11:13.525Z,60.17
2023-03-01T05:13:41.673Z,62.83
2023-03-01T05:16:12.796Z,60.03
2023-03-01T05:18:41.516Z,60.00
2023-03-01T05:21:11.876Z,58.00
2023-03-01T05:23:40.001Z,61.28
2023-03-01T05:26:16.200Z,62.35
2023-03-01T05:28:49.868Z,61.05
2023-03-01T05:31:17.409Z,58.00
2023-03-01T05:33:44.866Z,59.22
2023-03-01T05:36:12.374Z,58.53
2023-03-01T05:38:41.756Z,55.25
2023-03-01T05:41:17.056Z,54.50
2023-03-01T05:43:46.324Z,56.00
2023-03-01T05:46:16.611Z,53.58
2023-03-01T05:48:49.514Z,54.53
2023-03-01T05:51:17.037Z,53.42
2023-03-01T05:53:45.556Z,54.70
2023-03-01T05:56:12.934Z,55.58
2023-03-01T05:58:40.335Z,55.33
2023-03-01T06:01:14.331Z,57.90
2023-03-01T06:03:42.905Z,58.67
2023-03-01T06:06:10.480Z,60.63
2023-03-01T06:08:37.909Z,56.30
2023-03-01T06:11:06.599Z,59.75
2023-03-01T06:13:33.987Z,57.60
2023-03-01T06:16:01.231Z,57.30
2023-03-01T06:18:28.451Z,56.33
2023-03-01T06:20:57.184Z,56.20
2023-03-01T06:23:25.565Z,54.83
2023-03-01T06:25:52.789Z,54.72
2023-03-01T06:28:20.716Z,52.85
2023-03-01T06:30:48.189Z,55.13
2023-03-01T06:33:15.879Z,55.38
2023-03-01T06:35:43.120Z,66.82
2023-03-01T06:38:10.800Z,77.43
2023-03-01T06:40:37.980Z,52.75
2023-03-01T06:43:05.932Z,54.42
2023-03-01T06:45:33.722Z,52.35
2023-03-01T06:48:09.039Z,52.75
2023-03-01T06:50:37.462Z,50.47
2023-03-01T06:53:05.920Z,51.90
2023-03-01T06:55:34.285Z,53.17
2023-03-01T06:58:04.466Z,53.80
2023-03-01T07:00:32.736Z,54.03
2023-03-01T07:03:01.291Z,57.67
2023-03-01T07:05:28.643Z,59.65
2023-03-01T07:07:56.979Z,59.28
2023-03-01T07:10:32.981Z,60.08
2023-03-01T07:13:00.302Z,59.78
2023-03-01T07:15:29.975Z,63.55
2023-03-01T07:17:58.073Z,61.97
2023-03-01T07:20:26.776Z,66.82
2023-03-01T07:22:55.256Z,65.47
2023-03-01T07:25:23.900Z,66.82
2023-03-01T07:27:52.783Z,66.78
2023-03-01T07:30:21.073Z,70.07
2023-03-01T07:32:49.003Z,69.82
2023-03-01T07:35:16.404Z,88.63
2023-03-01T07:37:43.863Z,71.43
2023-03-01T07:40:18.904Z,62.60
2023-03-01T07:42:46.781Z,65.45
2023-03-01T07:45:14.923Z,63.25
2023-03-01T07:47:42.806Z,62.97
2023-03-01T07:50:12.702Z,62.97
2023-03-01T07:52:40.581Z,61.53
2023-03-01T07:55:09.748Z,59.05
2023-03-01T07:57:36.953Z,58.60
2023-03-01T08:00:06.147Z,56.13
2023-03-01T08:02:33.533Z,55.60
2023-03-01T08:05:00.898Z,61.85
2023-03-01T08:07:28.094Z,97.60
2023-03-01T08:09:56.527Z,57.35
2023-03-01T08:12:25.056Z,54.95
2023-03-01T08:14:56.759Z,55.67
2023-03-01T08:17:24.379Z,55.10
2023-03-01T08:19:52.480Z,56.80
2023-03-01T08:22:19.531Z,51.65
2023-03-01T08:24:47.980Z,52.45
2023-03-01T08:27:17.175Z,52.25
2023-03-01T08:29:44.909Z,55.95
2023-03-01T08:32:13.546Z,57.42
2023-03-01T08:34:42.565Z,60.13
2023-03-01T08:37:11.036Z,60.95
2023-03-01T08:39:38.452Z,56.13
2023-03-01T08:42:05.930Z,67.32
2023-03-01T08:44:33.310Z,58.45
2023-03-01T08:47:01.278Z,58.05
2023-03-01T08:49:28.589Z,54.83
2023-03-01T08:51:55.726Z,56.05
2023-03-01T08:54:25.117Z,58.60
2023-03-01T08:56:52.551Z,58.13
2023-03-01T08:59:21.166Z,59.17
2023-03-01T09:01:48.325Z,57.10
2023-03-01T09:04:17.805Z,54.60
2023-03-01T09:06:44.902Z,54.58
2023-03-01T09:09:19.252Z,54.38
2023-03-01T09:11:47.603Z,55.70
2023-03-01T09:14:15.888Z,55.75
2023-03-01T09:16:44.430Z,53.97
2023-03-01T09:19:12.526Z,48.80
2023-03-01T09:21:41.649Z,51.20
2023-03-01T09:24:14.875Z,42.70
2023-03-01T09:26:43.711Z,52.45
2023-03-01T09:29:13.872Z,50.25
2023-03-01T09:31:41.748Z,52.47
2023-03-01T09:34:10.404Z,52.08
2023-03-01T09:36:39.063Z,52.58
2023-03-01T09:39:07.506Z,51.33
2023-03-01T09:41:51.625Z,49.25
2023-03-01T09:44:55.292Z,44.72
2023-03-01T09:47:27.954Z,40.10
2023-03-01T09:50:18.982Z,40.33
2023-03-01T09:53:27.053Z,34.33
2023-03-01T09:56:06.412Z,31.35
2023-03-01T09:58:38.218Z,29.45
2023-03-01T10:01:34.019Z,29.45
2023-03-01T10:04:30.398Z,26.75
2023-03-01T10:07:15.652Z,23.70
2023-03-01T10:09:45.883Z,58.80
2023-03-01T10:12:19.494Z,29.42
2023-03-01T10:15:04.624Z,22.67
2023-03-01T10:17:46.006Z,23.75
2023-03-01T10:20:25.060Z,30.00
2023-03-01T10:22:53.813Z,32.97
2023-03-01T10:25:48.735Z,30.85
2023-03-01T10:28:29.196Z,30.02
2023-03-01T10:31:00.368Z,31.15
2023-03-01T10:33:40.910Z,37.45
2023-03-01T10:36:09.895Z,32.28
2023-03-01T10:38:55.161Z,31.65
2023-03-01T10:41:26.956Z,28.90
2023-03-01T10:43:58.714Z,38.05
2023-03-01T10:46:37.591Z,30.67
2023-03-01T10:49:15.736Z,31.55
2023-03-01T10:51:49.419Z,31.80
2023-03-01T10:56:59.436Z,29.40
2023-03-01T10:59:33.628Z,28.95
2023-03-01T11:02:29.642Z,32.35
2023-03-01T11:08:05.164Z,29.08
2023-03-01T11:10:37.241Z,41.40
2023-03-01T11:13:23.118Z,31.05
2023-03-01T11:16:27.100Z,25.05
2023-03-01T11:19:18.791Z,20.75
2023-03-01T11:22:01.341Z,20.17
2023-03-01T11:24:44.956Z,20.17
2023-03-01T11:27:24.043Z,21.50
2023-03-01T11:30:17.187Z,21.40
2023-03-01T11:32:54.969Z,24.25
2023-03-01T11:35:30.890Z,23.13
2023-03-01T11:38:18.149Z,20.35
2023-03-01T11:40:54.930Z,19.15
2023-03-01T11:43:45.890Z,24.52
2023-03-01T11:46:22.668Z,23.60
2023-03-01T11:49:17.756Z,27.17
2023-03-01T11:52:10.340Z,29.02
2023-03-01T11:55:01.989Z,30.80
2023-03-01T11:57:50.334Z,30.67
2023-03-01T12:00:50.715Z,30.70
2023-03-01T12:03:26.256Z,29.27
2023-03-01T12:06:25.473Z,30.65
2023-03-01T12:09:15.543Z,29.00
2023-03-01T12:11:46.953Z,29.50
2023-03-01T12:15:08.601Z,28.73
2023-03-01T12:18:00.915Z,27.10
2023-03-01T12:20:49.715Z,25.85
2023-03-01T12:23:28.943Z,24.10
2023-03-01T12:26:34.633Z,24.20
2023-03-01T12:29:25.643Z,23.33
2023-03-01T12:32:06.747Z,24.77
2023-03-01T12:35:01.866Z,22.42
2023-03-01T12:37:49.435Z,20.88
2023-03-01T12:40:17.761Z,21.90
2023-03-01T12:43:00.321Z,21.48
2023-03-01T12:45:47.592Z,21.80
2023-03-01T12:48:21.392Z,20.48
2023-03-01T12:53:36.035Z,22.10
2023-03-01T12:56:25.253Z,22.98
2023-03-01T12:59:17.529Z,22.15
2023-03-01T13:02:06.143Z,22.17
2023-03-01T13:05:05.262Z,23.33
2023-03-01T13:07:42.083Z,21.80
2023-03-01T13:10:18.785Z,22.02
2023-03-01T13:12:59.064Z,22.98
2023-03-01T13:15:38.548Z,23.10
2023-03-01T13:18:17.890Z,23.20
2023-03-01T13:20:45.211Z,22.20
2023-03-01T13:23:24.456Z,23.00
2023-03-01T13:26:08.937Z,23.00
2023-03-01T13:28:47.286Z,38.90
2023-03-01T13:31:20.957Z,31.83
2023-03-01T13:36:29.142Z,24.00
2023-03-01T13:38:59.187Z,23.25
2023-03-01T13:41:45.648Z,22.40
2023-03-01T13:44:25.773Z,23.90
2023-03-01T13:46:55.632Z,23.98
2023-03-01T13:49:27.381Z,23.98
2023-03-01T13:51:55.645Z,26.97
2023-03-01T13:54:33.047Z,25.55
2023-03-01T13:57:02.954Z,24.58
2023-03-01T13:59:31.868Z,25.50
2023-03-01T14:02:01.493Z,26.05
2023-03-01T14:04:32.694Z,24.90
2023-03-01T14:07:18.654Z,23.77
2023-03-01T14:09:52.143Z,25.58
2023-03-01T14:12:41.472Z,24.65
2023-03-01T14:15:28.804Z,27.48
2023-03-01T14:18:09.767Z,23.45
2023-03-01T14:20:52.484Z,30.08
2023-03-01T14:23:23.535Z,31.52
2023-03-01T14:25:59.164Z,23.30
2023-03-01T14:28:29.701Z,22.58
2023-03-01T14:30:59.621Z,23.90
2023-03-01T14:33:42.490Z,26.38
2023-03-01T14:36:15.698Z,23.80
2023-03-01T14:38:48.657Z,24.48
2023-03-01T14:41:29.795Z,26.25
2023-03-01T14:44:03.061Z,32.90
2023-03-01T14:46:41.874Z,26.27
2023-03-01T14:49:13.664Z,25.67
2023-03-01T14:51:44.358Z,28.08
2023-03-01T14:54:33.046Z,22.60
2023-03-01T14:57:03.083Z,23.55
2023-03-01T14:59:30.393Z,22.95
2023-03-01T15:01:59.807Z,23.08
2023-03-01T15:04:28.973Z,24.02
2023-03-01T15:07:06.435Z,30.42
2023-03-01T15:09:38.015Z,23.83
2023-03-01T15:12:27.267Z,23.27
2023-03-01T15:15:03.344Z,27.02
2023-03-01T15:17:39.675Z,23.15
2023-03-01T15:20:18.010Z,23.17
2023-03-01T15:22:49.869Z,22.45
2023-03-01T15:25:24.455Z,24.77
2023-03-01T15:27:54.574Z,22.17
2023-03-01T15:30:38.920Z,21.52
2023-03-01T15:33:23.930Z,23.70
2023-03-01T15:35:54.813Z,21.38
2023-03-01T15:38:44.025Z,21.17
2023-03-01T15:41:32.182Z,20.70
2023-03-01T15:44:01.079Z,21.75
2023-03-01T15:46:39.111Z,21.33
2023-03-01T15:49:26.446Z,21.70
2023-03-01T15:51:56.241Z,20.20
2023-03-01T15:54:27.823Z,25.73
2023-03-01T15:56:55.694Z,29.55
2023-03-01T15:59:23.621Z,36.30
2023-03-01T16:01:51.102Z,43.63
2023-03-01T16:04:24.315Z,81.50
2023-03-01T16:06:56.630Z,143.68
2023-03-01T16:09:28.071Z,62.70
2023-03-01T16:11:56.409Z,54.58
2023-03-01T16:14:24.610Z,28.13
2023-03-01T16:16:52.337Z,31.48
2023-03-01T16:19:19.554Z,32.20
2023-03-01T16:21:47.976Z,45.10
2023-03-01T16:24:15.848Z,103.18
2023-03-01T16:26:44.696Z,37.88
2023-03-01T16:29:12.396Z,22.67
2023-03-01T16:31:40.335Z,27.13
2023-03-01T16:34:08.143Z,25.30
2023-03-01T16:36:37.891Z,58.47
2023-03-01T16:39:05.775Z,49.50
2023-03-01T16:41:33.729Z,91.47
2023-03-01T16:44:07.632Z,100.40
2023-03-01T16:49:04.586Z,33.65
2023-03-01T16:51:32.674Z,47.63
2023-03-01T16:54:00.330Z,34.40
2023-03-01T16:56:29.488Z,50.78
2023-03-01T16:58:57.286Z,28.88
2023-03-01T17:01:25.733Z,30.67
2023-03-01T17:03:53.410Z,30.60
2023-03-01T17:06:23.465Z,34.55
2023-03-01T17:08:52.262Z,28.15
2023-03-01T17:11:21.134Z,23.33
2023-03-01T17:13:52.745Z,27.70
2023-03-01T17:16:21.833Z,26.92
2023-03-01T17:18:50.189Z,21.05
2023-03-01T17:21:20.428Z,21.42
2023-03-01T17:23:50.564Z,25.00
2023-03-01T17:26:18.598Z,40.10
2023-03-01T17:28:52.136Z,34.20
2023-03-01T17:31:21.068Z,46.88
2023-03-01T17:33:50.404Z,33.05
2023-03-01T17:36:19.661Z,34.45
2023-03-01T17:38:49.970Z,36.95
2023-03-01T17:41:19.681Z,40.70
2023-03-01T17:43:47.771Z,30.75
2023-03-01T17:46:16.510Z,30.73
2023-03-01T17:48:43.857Z,32.80
2023-03-01T17:51:12.726Z,28.77
2023-03-01T17:53:43.151Z,29.23
2023-03-01T17:56:12.946Z,31.50
2023-03-01T17:58:41.061Z,30.02
2023-03-01T18:01:21.919Z,29.25
2023-03-01T18:03:53.879Z,31.20
2023-03-01T18:06:24.149Z,46.40
2023-03-01T18:08:55.453Z,60.78
2023-03-01T18:11:25.440Z,84.95
2023-03-01T18:13:55.078Z,84.57
2023-03-01T18:16:24.820Z,78.90
2023-03-01T18:19:00.471Z,69.47
2023-03-01T18:21:30.224Z,64.43
2023-03-01T18:24:02.385Z,72.43
2023-03-01T18:26:30.628Z,52.92
2023-03-01T18:29:01.563Z,42.25
2023-03-01T18:31:33.218Z,34.70
2023-03-01T18:34:02.209Z,39.20
2023-03-01T18:36:33.827Z,39.25
2023-03-01T18:39:07.294Z,41.50
2023-03-01T18:41:36.560Z,41.40
2023-03-01T18:44:09.720Z,45.88
2023-03-01T18:46:40.442Z,43.95
2023-03-01T18:49:09.025Z,43.33
2023-03-01T18:51:36.989Z,44.25
2023-03-01T18:54:05.131Z,43.13
2023-03-01T18:56:37.613Z,43.33
2023-03-01T18:59:06.668Z,44.38
2023-03-01T19:01:37.371Z,38.08
2023-03-01T19:04:06.931Z,44.53
2023-03-01T19:06:35.918Z,46.25
2023-03-01T19:09:05.184Z,29.60
2023-03-01T19:11:34.586Z,24.02
2023-03-01T19:14:04.797Z,23.80
2023-03-01T19:16:36.537Z,22.50
2023-03-01T19:19:06.769Z,30.92
2023-03-01T19:21:35.628Z,40.15
2023-03-01T19:24:06.470Z,30.08
2023-03-01T19:26:35.998Z,26.25
2023-03-01T19:29:05.348Z,30.00
2023-03-01T19:31:33.328Z,28.70
2023-03-01T19:34:11.877Z,31.85
2023-03-01T19:36:45.599Z,29.85
2023-03-01T19:39:14.904Z,26.25
2023-03-01T19:41:50.064Z,29.08
2023-03-01T19:44:18.609Z,28.92
2023-03-01T19:46:46.802Z,29.42
2023-03-01T19:49:14.774Z,26.58
2023-03-01T19:51:43.047Z,28.77
2023-03-01T19:54:13.226Z,31.55
2023-03-01T19:56:45.234Z,57.97
2023-03-01T19:59:13.891Z,59.30
2023-03-01T20:01:45.206Z,57.35
2023-03-01T20:04:13.805Z,46.85
2023-03-01T20:06:48.951Z,34.17
2023-03-01T20:09:22.152Z,28.35
2023-03-01T20:11:53.274Z,28.63
2023-03-01T20:14:23.746Z,30.35
2023-03-01T20:16:52.047Z,29.40
2023-03-01T20:19:22.845Z,31.92
2023-03-01T20:21:54.126Z,30.88
2023-03-01T20:24:23.193Z,33.50
2023-03-01T20:26:52.817Z,33.17
2023-03-01T20:29:20.960Z,28.85
2023-03-01T20:31:49.085Z,31.63
2023-03-01T20:34:17.714Z,36.58
2023-03-01T20:36:47.072Z,33.92
2023-03-01T20:39:16.508Z,30.33
2023-03-01T20:41:44.819Z,30.92
2023-03-01T20:44:14.312Z,38.75
2023-03-01T20:46:43.818Z,36.85
2023-03-01T20:49:11.576Z,29.40
2023-03-01T20:51:39.520Z,28.80
2023-03-01T20:54:08.688Z,31.00
2023-03-01T20:56:38.163Z,31.58
2023-03-01T20:59:14.180Z,41.78
2023-03-01T21:01:45.296Z,41.33
2023-03-01T21:04:13.415Z,45.92
2023-03-01T21:06:42.001Z,52.67
2023-03-01T21:09:11.931Z,57.65
2023-03-01T21:11:39.812Z,49.22
2023-03-01T21:14:07.223Z,40.28
2023-03-01T21:16:35.883Z,35.58
2023-03-01T21:19:06.798Z,35.38
2023-03-01T21:21:34.619Z,36.83
2023-03-01T21:24:10.855Z,36.67
2023-03-01T21:26:39.615Z,40.13
2023-03-01T21:29:09.205Z,39.10
2023-03-01T21:31:37.245Z,35.20
2023-03-01T21:34:07.237Z,35.28
2023-03-01T21:36:35.758Z,34.00
2023-03-01T21:39:05.618Z,34.72
2023-03-01T21:41:35.850Z,37.28
2023-03-01T21:44:04.774Z,38.17
2023-03-01T21:46:34.585Z,44.20
2023-03-01T21:49:04.923Z,46.28
2023-03-01T21:51:32.700Z,46.30
2023-03-01T21:54:03.567Z,43.78
2023-03-01T21:56:34.662Z,47.35
2023-03-01T21:59:02.070Z,44.13
2023-03-01T22:01:29.786Z,75.30
2023-03-01T22:03:59.205Z,49.38
2023-03-01T22:06:33.222Z,48.92
2023-03-01T22:09:06.176Z,51.35
2023-03-01T22:11:37.569Z,49.90
2023-03-01T22:14:05.464Z,43.78
2023-03-01T22:16:42.275Z,36.97
2023-03-01T22:19:10.092Z,38.08
2023-03-01T22:21:42.596Z,39.47
2023-03-01T22:24:10.628Z,49.88
2023-03-01T22:26:43.393Z,53.67
2023-03-01T22:29:19.910Z,63.10
2023-03-01T22:31:47.713Z,60.90
2023-03-01T22:34:18.402Z,69.55
2023-03-01T22:36:46.163Z,63.03
2023-03-01T22:39:18.502Z,66.38
2023-03-01T22:41:48.408Z,65.22
2023-03-01T22:44:18.567Z,47.83
2023-03-01T22:46:46.858Z,52.17
2023-03-01T22:49:15.877Z,43.72
2023-03-01T22:51:44.044Z,44.58
2023-03-01T22:54:11.813Z,48.08
2023-03-01T22:56:43.436Z,48.47
2023-03-01T22:59:14.553Z,47.00
2023-03-01T23:01:46.477Z,44.45
2023-03-01T23:04:20.696Z,44.22
2023-03-01T23:09:21.742Z,36.58
2023-03-01T23:11:50.861Z,36.80
2023-03-01T23:14:19.695Z,40.10
2023-03-01T23:16:49.683Z,49.55
2023-03-01T23:19:19.243Z,42.33
2023-03-01T23:21:50.509Z,41.28
2023-03-01T23:24:19.547Z,48.40
2023-03-01T23:26:53.520Z,42.92
2023-03-01T23:29:21.751Z,40.83
2023-03-01T23:31:49.196Z,41.85
2023-03-01T23:34:23.364Z,36.85
2023-03-01T23:36:53.154Z,34.38
2023-03-01T23:39:21.804Z,34.83
2023-03-01T23:41:55.103Z,35.15
2023-03-01T23:44:23.260Z,35.03
2023-03-01T23:46:51.749Z,34.42
2023-03-01T23:49:25.124Z,36.53
2023-03-01T23:51:52.547Z,36.20
2023-03-01T23:54:22.292Z,35.55
2023-03-01T23:56:49.720Z,34.92
2023-03-01T23:59:19.787Z,37.75
